createdAt,value
2023-09-08T00:00:22.430Z,12.74
2023-09-08T00:03:10.837Z,12.71
2023-09-08T00:05:39.439Z,12.69
2023-09-08T00:08:07.738Z,12.68
2023-09-08T00:10:36.034Z,12.67
2023-09-08T00:13:04.624Z,12.66
2023-09-08T00:15:36.672Z,12.64
2023-09-08T00:18:05.489Z,12.63
2023-09-08T00:20:33.849Z,12.60
2023-09-08T00:23:02.280Z,12.56
2023-09-08T00:25:30.732Z,12.54
2023-09-08T00:28:05.537Z,12.53
2023-09-08T00:30:33.838Z,12.50
2023-09-08T00:33:02.452Z,12.47
2023-09-08T00:35:31.207Z,12.44
2023-09-08T00:37:59.706Z,12.42
2023-09-08T00:40:29.913Z,12.40
2023-09-08T00:42:58.212Z,12.37
2023-09-08T00:45:31.033Z,12.36
2023-09-08T00:48:00.340Z,12.35
2023-09-08T00:50:29.037Z,12.34
2023-09-08T00:52:57.900Z,12.32
2023-09-08T00:55:26.397Z,12.29
2023-09-08T00:57:54.884Z,12.28
2023-09-08T01:00:23.276Z,12.25
2023-09-08T01:02:51.712Z,12.22
2023-09-08T01:05:22.045Z,12.19
2023-09-08T01:07:52.370Z,12.17
2023-09-08T01:10:20.870Z,12.14
2023-09-08T01:12:49.176Z,12.13
2023-09-08T01:15:17.439Z,12.11
2023-09-08T01:17:45.881Z,12.10
2023-09-08T01:20:25.803Z,12.09
2023-09-08T01:23:19.906Z,12.06
2023-09-08T01:25:55.602Z,12.03
2023-09-08T01:28:25.983Z,12.00
2023-09-08T01:30:57.090Z,11.99
2023-09-08T01:33:27.699Z,11.97
2023-09-08T01:35:56.450Z,11.96
2023-09-08T01:38:26.271Z,11.94
2023-09-08T01:40:54.750Z,11.93
2023-09-08T01:43:22.934Z,11.90
2023-09-08T01:45:51.081Z,11.86
2023-09-08T01:48:19.361Z,11.84
2023-09-08T01:50:49.004Z,11.81
2023-09-08T01:53:17.090Z,11.79
2023-09-08T01:55:45.394Z,11.77
2023-09-08T01:58:14.140Z,11.75
2023-09-08T02:00:42.404Z,11.73
2023-09-08T02:03:10.710Z,11.71
2023-09-08T02:05:40.344Z,11.68
2023-09-08T02:08:08.954Z,11.66
2023-09-08T02:10:37.301Z,11.64
2023-09-08T02:13:05.546Z,11.61
2023-09-08T02:15:38.009Z,11.59
2023-09-08T02:18:08.526Z,11.57
2023-09-08T02:20:37.517Z,11.54
2023-09-08T02:23:08.117Z,11.53
2023-09-08T02:25:36.548Z,11.51
2023-09-08T02:28:05.382Z,11.49
2023-09-08T02:30:33.814Z,11.49
2023-09-08T02:33:04.474Z,11.50
2023-09-08T02:35:38.195Z,11.47
2023-09-08T02:38:07.020Z,11.43
2023-09-08T02:40:35.956Z,11.46
2023-09-08T02:43:05.856Z,11.39
2023-09-08T02:45:36.450Z,11.36
2023-09-08T02:48:05.487Z,11.33
2023-09-08T02:50:34.250Z,11.29
2023-09-08T02:53:02.541Z,11.28
2023-09-08T02:55:31.648Z,11.26
2023-09-08T02:57:59.877Z,11.24
2023-09-08T03:00:29.297Z,11.22
2023-09-08T03:02:57.523Z,11.21
2023-09-08T03:05:26.976Z,11.20
2023-09-08T03:07:55.152Z,11.19
2023-09-08T03:10:23.716Z,11.19
2023-09-08T03:12:52.024Z,11.17
2023-09-08T03:15:20.254Z,11.14
2023-09-08T03:17:48.372Z,11.12
2023-09-08T03:20:16.753Z,11.10
2023-09-08T03:22:44.946Z,11.10
2023-09-08T03:25:17.738Z,11.08
2023-09-08T03:27:45.939Z,11.07
2023-09-08T03:30:14.626Z,11.06
2023-09-08T03:32:43.274Z,11.06
2023-09-08T03:35:11.842Z,11.07
2023-09-08T03:37:40.444Z,11.06
2023-09-08T03:40:10.590Z,11.06
2023-09-08T03:42:39.164Z,11.08
2023-09-08T03:45:07.744Z,11.10
2023-09-08T03:47:36.837Z,11.06
2023-09-08T03:50:05.701Z,11.02
2023-09-08T03:52:34.020Z,11.01
2023-09-08T03:55:02.627Z,11.00
2023-09-08T03:57:30.940Z,11.00
2023-09-08T03:59:59.287Z,10.99
2023-09-08T04:02:27.521Z,10.98
2023-09-08T04:04:56.391Z,10.96
2023-09-08T04:07:24.719Z,10.95
2023-09-08T04:09:52.920Z,10.94
2023-09-08T04:12:21.238Z,10.94
2023-09-08T04:14:50.493Z,10.94
2023-09-08T04:17:19.626Z,10.94
2023-09-08T04:19:47.794Z,10.95
2023-09-08T04:22:16.056Z,10.96
2023-09-08T04:24:44.877Z,10.98
2023-09-08T04:27:15.546Z,11.00
2023-09-08T04:29:44.349Z,11.00
2023-09-08T04:32:12.837Z,11.01
2023-09-08T04:34:43.502Z,11.03
2023-09-08T04:37:11.900Z,11.05
2023-09-08T04:39:40.291Z,11.07
2023-09-08T04:42:09.290Z,11.10
2023-09-08T04:44:37.653Z,11.11
2023-09-08T04:47:06.623Z,11.12
2023-09-08T04:49:35.290Z,11.14
2023-09-08T04:52:03.687Z,11.18
2023-09-08T04:54:33.093Z,11.22
2023-09-08T04:57:16.071Z,11.25
2023-09-08T04:59:50.344Z,11.31
2023-09-08T05:02:20.032Z,11.35
2023-09-08T05:04:49.139Z,11.40
2023-09-08T05:07:20.273Z,11.46
2023-09-08T05:09:49.221Z,11.53
2023-09-08T05:12:17.659Z,11.61
2023-09-08T05:14:45.902Z,11.69
2023-09-08T05:17:14.219Z,11.79
2023-09-08T05:19:42.413Z,11.90
2023-09-08T05:22:10.663Z,12.01
2023-09-08T05:24:38.926Z,12.13
2023-09-08T05:27:07.519Z,12.25
2023-09-08T05:29:35.916Z,12.38
2023-09-08T05:32:04.543Z,12.53
2023-09-08T05:34:32.896Z,12.68
2023-09-08T05:37:01.155Z,12.83
2023-09-08T05:39:29.431Z,12.99
2023-09-08T05:41:58.528Z,13.16
2023-09-08T05:44:26.806Z,13.34
2023-09-08T05:46:56.067Z,13.52
2023-09-08T05:49:26.156Z,13.71
2023-09-08T05:51:54.475Z,13.87
2023-09-08T05:54:23.330Z,14.03
2023-09-08T05:56:52.033Z,14.21
2023-09-08T05:59:20.326Z,14.39
2023-09-08T06:01:48.739Z,14.58
2023-09-08T06:04:17.384Z,14.76
2023-09-08T06:06:46.499Z,14.95
2023-09-08T06:09:17.670Z,15.15
2023-09-08T06:11:47.337Z,15.34
2023-09-08T06:14:15.739Z,15.51
2023-09-08T06:16:47.500Z,15.66
2023-09-08T06:19:16.077Z,15.79
2023-09-08T06:21:44.791Z,15.97
2023-09-08T06:24:14.195Z,16.14
2023-09-08T06:26:44.026Z,16.30
2023-09-08T06:29:12.807Z,16.45
2023-09-08T06:31:41.061Z,16.58
2023-09-08T06:34:09.710Z,16.73
2023-09-08T06:36:38.952Z,16.89
2023-09-08T06:39:07.199Z,17.01
2023-09-08T06:41:35.557Z,17.13
2023-09-08T06:44:04.529Z,17.27
2023-09-08T06:46:33.069Z,17.42
2023-09-08T06:49:02.962Z,17.59
2023-09-08T06:51:33.674Z,17.70
2023-09-08T06:54:02.521Z,17.84
2023-09-08T06:56:38.026Z,18.01
2023-09-08T06:59:06.481Z,18.16
2023-09-08T07:01:36.078Z,18.28
2023-09-08T07:04:04.896Z,18.44
2023-09-08T07:06:33.771Z,18.58
2023-09-08T07:09:03.199Z,18.72
2023-09-08T07:11:31.905Z,18.86
2023-09-08T07:14:00.271Z,19.01
2023-09-08T07:16:28.712Z,19.20
2023-09-08T07:18:57.035Z,19.39
2023-09-08T07:21:25.299Z,19.54
2023-09-08T07:23:55.067Z,19.70
2023-09-08T07:26:23.349Z,19.84
2023-09-08T07:28:51.716Z,19.97
2023-09-08T07:31:20.119Z,20.11
2023-09-08T07:33:49.976Z,20.25
2023-09-08T07:36:18.619Z,20.40
2023-09-08T07:38:47.667Z,20.56
2023-09-08T07:41:16.157Z,20.73
2023-09-08T07:43:47.268Z,20.88
2023-09-08T07:46:17.122Z,20.99
2023-09-08T07:48:45.668Z,21.14
2023-09-08T07:51:13.992Z,21.29
2023-09-08T07:53:42.382Z,21.43
2023-09-08T07:56:10.710Z,21.56
2023-09-08T07:58:41.072Z,21.68
2023-09-08T08:01:09.566Z,21.83
2023-09-08T08:03:38.973Z,21.97
2023-09-08T08:06:07.497Z,22.10
2023-09-08T08:08:39.973Z,22.21
2023-09-08T08:11:16.776Z,22.31
2023-09-08T08:13:47.329Z,22.41
2023-09-08T08:16:15.591Z,22.51
2023-09-08T08:18:43.986Z,22.65
2023-09-08T08:21:12.424Z,22.79
2023-09-08T08:23:40.611Z,22.94
2023-09-08T08:26:08.843Z,23.08
2023-09-08T08:28:37.578Z,23.21
2023-09-08T08:31:06.325Z,23.31
2023-09-08T08:33:34.948Z,23.42
2023-09-08T08:36:04.354Z,23.54
2023-09-08T08:38:32.703Z,23.66
2023-09-08T08:41:05.909Z,23.75
2023-09-08T08:43:34.658Z,23.82
2023-09-08T08:46:03.485Z,23.89
2023-09-08T08:48:33.317Z,24.01
2023-09-08T08:51:03.924Z,24.20
2023-09-08T08:53:33.671Z,24.39
2023-09-08T08:56:02.109Z,24.49
2023-09-08T08:58:30.909Z,24.65
2023-09-08T09:01:00.499Z,24.83
2023-09-08T09:03:30.192Z,24.93
2023-09-08T09:05:58.717Z,24.96
2023-09-08T09:08:29.851Z,25.06
2023-09-08T09:10:58.157Z,25.18
2023-09-08T09:13:26.506Z,25.26
2023-09-08T09:16:01.407Z,25.33
2023-09-08T09:18:32.029Z,25.42
2023-09-08T09:21:02.257Z,25.44
2023-09-08T09:23:35.372Z,25.47
2023-09-08T09:26:08.148Z,25.54
2023-09-08T09:28:49.829Z,25.65
2023-09-08T09:31:18.179Z,25.78
2023-09-08T09:33:46.755Z,25.91
2023-09-08T09:36:22.052Z,26.03
2023-09-08T09:38:50.257Z,26.16
2023-09-08T09:41:18.518Z,26.29
2023-09-08T09:43:47.524Z,26.37
2023-09-08T09:46:16.889Z,26.44
2023-09-08T09:48:45.155Z,26.50
2023-09-08T09:51:21.000Z,26.58
2023-09-08T09:53:51.327Z,26.74
2023-09-08T09:56:19.585Z,26.85
2023-09-08T09:58:49.477Z,27.00
2023-09-08T10:01:18.662Z,27.15
2023-09-08T10:03:48.602Z,27.36
2023-09-08T10:06:18.132Z,27.56
2023-09-08T10:08:46.839Z,27.74
2023-09-08T10:11:16.252Z,27.85
2023-09-08T10:13:48.309Z,27.89
2023-09-08T10:16:20.764Z,27.89
2023-09-08T10:18:52.392Z,27.90
2023-09-08T10:21:24.544Z,27.90
2023-09-08T10:24:04.871Z,27.92
2023-09-08T10:26:36.039Z,27.94
2023-09-08T10:29:04.431Z,27.91
2023-09-08T10:31:33.015Z,27.93
2023-09-08T10:34:03.701Z,28.04
2023-09-08T10:36:33.641Z,28.21
2023-09-08T10:39:43.261Z,28.26
2023-09-08T10:42:17.314Z,28.28
2023-09-08T10:44:48.532Z,28.30
2023-09-08T10:47:24.573Z,28.30
2023-09-08T10:50:00.379Z,28.34
2023-09-08T10:52:30.089Z,28.36
2023-09-08T10:54:59.171Z,28.23
2023-09-08T10:57:27.542Z,28.14
2023-09-08T10:59:58.789Z,28.16
2023-09-08T11:02:40.515Z,28.23
2023-09-08T11:05:11.684Z,28.33
2023-09-08T11:07:41.835Z,28.44
2023-09-08T11:10:11.603Z,28.58
2023-09-08T11:12:39.897Z,28.62
2023-09-08T11:15:09.972Z,28.56
2023-09-08T11:17:43.625Z,28.58
2023-09-08T11:20:13.889Z,28.63
2023-09-08T11:22:42.786Z,28.66
2023-09-08T11:25:12.905Z,28.71
2023-09-08T11:27:41.483Z,28.70
2023-09-08T11:30:10.404Z,28.82
2023-09-08T11:32:38.756Z,28.90
2023-09-08T11:35:10.113Z,28.92
2023-09-08T11:37:39.975Z,29.01
2023-09-08T11:40:12.213Z,29.08
2023-09-08T11:42:46.240Z,29.12
2023-09-08T11:45:19.446Z,29.23
2023-09-08T11:47:47.882Z,29.36
2023-09-08T11:50:18.347Z,29.42
2023-09-08T11:52:48.922Z,29.43
2023-09-08T11:55:19.199Z,29.47
2023-09-08T11:57:51.364Z,29.59
2023-09-08T12:00:22.436Z,29.72
2023-09-08T12:02:51.574Z,29.84
2023-09-08T12:05:25.630Z,29.87
2023-09-08T12:07:54.622Z,29.87
2023-09-08T12:10:23.916Z,29.84
2023-09-08T12:12:59.565Z,29.83
2023-09-08T12:15:34.516Z,29.83
2023-09-08T12:18:06.978Z,29.78
2023-09-08T12:20:36.475Z,29.60
2023-09-08T12:23:08.897Z,29.48
2023-09-08T12:25:46.478Z,29.51
2023-09-08T12:28:16.924Z,29.56
2023-09-08T12:30:46.170Z,29.61
2023-09-08T12:33:21.889Z,29.75
2023-09-08T12:35:55.027Z,29.86
2023-09-08T12:38:24.874Z,29.96
2023-09-08T12:40:54.186Z,30.02
2023-09-08T12:43:28.169Z,30.14
2023-09-08T12:45:57.615Z,30.13
2023-09-08T12:48:26.573Z,30.10
2023-09-08T12:50:55.037Z,30.01
2023-09-08T12:53:24.659Z,29.96
2023-09-08T12:55:53.264Z,30.01
2023-09-08T12:58:22.071Z,30.12
2023-09-08T13:00:51.548Z,30.26
2023-09-08T13:03:19.803Z,30.48
2023-09-08T13:05:48.184Z,30.62
2023-09-08T13:08:16.682Z,30.64
2023-09-08T13:10:44.916Z,30.57
2023-09-08T13:13:13.118Z,30.38
2023-09-08T13:15:41.425Z,30.27
2023-09-08T13:18:09.753Z,30.21
2023-09-08T13:20:38.073Z,30.18
2023-09-08T13:23:06.435Z,30.10
2023-09-08T13:25:34.637Z,29.96
2023-09-08T13:28:02.933Z,29.85
2023-09-08T13:30:31.242Z,29.69
2023-09-08T13:32:59.614Z,29.61
2023-09-08T13:35:27.835Z,29.48
2023-09-08T13:37:55.976Z,29.36
2023-09-08T13:40:24.411Z,29.29
2023-09-08T13:42:52.952Z,29.23
2023-09-08T13:45:21.463Z,29.16
2023-09-08T13:47:50.531Z,29.12
2023-09-08T13:50:20.856Z,28.94
2023-09-08T13:52:51.398Z,28.73
2023-09-08T13:55:36.776Z,28.55
2023-09-08T13:58:09.428Z,28.57
2023-09-08T14:00:44.928Z,28.51
2023-09-08T14:03:15.879Z,28.39
2023-09-08T14:08:28.536Z,28.17
2023-09-08T14:13:29.551Z,27.90
2023-09-08T14:15:59.362Z,27.76
2023-09-08T14:18:29.120Z,27.61
2023-09-08T14:20:57.288Z,27.51
2023-09-08T14:23:25.538Z,27.38
2023-09-08T14:25:53.885Z,27.23
2023-09-08T14:28:22.431Z,27.07
2023-09-08T14:30:52.433Z,26.94
2023-09-08T14:33:21.261Z,26.85
2023-09-08T14:35:52.702Z,26.77
2023-09-08T14:38:25.177Z,26.72
2023-09-08T14:41:01.693Z,26.64
2023-09-08T14:43:31.067Z,26.55
2023-09-08T14:45:59.316Z,26.47
2023-09-08T14:48:27.802Z,26.39
2023-09-08T14:50:59.345Z,26.32
2023-09-08T14:53:30.097Z,26.25
2023-09-08T14:56:01.404Z,26.19
2023-09-08T14:58:35.095Z,26.11
2023-09-08T15:01:08.466Z,26.03
2023-09-08T15:03:37.350Z,25.94
2023-09-08T15:06:05.948Z,25.86
2023-09-08T15:08:34.679Z,25.79
2023-09-08T15:11:02.812Z,25.72
2023-09-08T15:13:31.134Z,25.66
2023-09-08T15:16:00.753Z,25.58
2023-09-08T15:18:29.022Z,25.50
2023-09-08T15:20:58.277Z,25.45
2023-09-08T15:23:26.554Z,25.40
2023-09-08T15:25:57.052Z,25.33
2023-09-08T15:28:26.006Z,25.25
2023-09-08T15:30:55.976Z,25.18
2023-09-08T15:33:24.944Z,25.11
2023-09-08T15:35:55.916Z,25.05
2023-09-08T15:38:24.706Z,24.99
2023-09-08T15:41:18.490Z,24.93
2023-09-08T15:43:54.432Z,24.83
2023-09-08T15:46:22.925Z,24.77
2023-09-08T15:48:51.278Z,24.71
2023-09-08T15:51:19.559Z,24.62
2023-09-08T15:53:47.967Z,24.52
2023-09-08T15:56:16.304Z,24.43
2023-09-08T15:58:44.632Z,24.35
2023-09-08T16:01:13.607Z,24.26
2023-09-08T16:03:42.655Z,24.16
2023-09-08T16:06:13.996Z,24.07
2023-09-08T16:08:42.579Z,23.97
2023-09-08T16:11:10.857Z,23.84
2023-09-08T16:13:39.349Z,23.73
2023-09-08T16:16:07.952Z,23.60
2023-09-08T16:18:36.268Z,23.51
2023-09-08T16:21:04.630Z,23.42
2023-09-08T16:23:32.928Z,23.33
2023-09-08T16:26:01.209Z,23.23
2023-09-08T16:28:29.534Z,23.13
2023-09-08T16:31:04.254Z,23.03
2023-09-08T16:33:32.689Z,22.93
2023-09-08T16:36:01.210Z,22.83
2023-09-08T16:38:29.438Z,22.72
2023-09-08T16:40:59.208Z,22.60
2023-09-08T16:43:27.887Z,22.48
2023-09-08T16:45:56.053Z,22.37
2023-09-08T16:48:25.017Z,22.27
2023-09-08T16:50:53.336Z,22.16
2023-09-08T16:53:21.513Z,22.05
2023-09-08T16:55:49.729Z,21.94
2023-09-08T16:58:18.035Z,21.84
2023-09-08T17:00:46.159Z,21.73
2023-09-08T17:03:14.463Z,21.61
2023-09-08T17:05:44.339Z,21.50
2023-09-08T17:08:12.630Z,21.38
2023-09-08T17:10:40.973Z,21.26
2023-09-08T17:13:09.343Z,21.14
2023-09-08T17:15:37.652Z,21.03
2023-09-08T17:18:06.155Z,20.91
2023-09-08T17:20:34.508Z,20.79
2023-09-08T17:23:05.743Z,20.68
2023-09-08T17:25:33.971Z,20.56
2023-09-08T17:28:03.070Z,20.44
2023-09-08T17:30:31.237Z,20.32
2023-09-08T17:32:59.517Z,20.20
2023-09-08T17:35:28.268Z,20.09
2023-09-08T17:37:56.466Z,19.98
2023-09-08T17:40:24.652Z,19.88
2023-09-08T17:42:52.925Z,19.78
2023-09-08T17:45:21.105Z,19.67
2023-09-08T17:47:49.402Z,19.57
2023-09-08T17:50:18.196Z,19.48
2023-09-08T17:52:46.453Z,19.38
2023-09-08T17:55:14.939Z,19.29
2023-09-08T17:57:43.199Z,19.20
2023-09-08T18:00:11.798Z,19.12
2023-09-08T18:02:40.437Z,19.02
2023-09-08T18:05:09.477Z,18.95
2023-09-08T18:07:38.183Z,18.86
2023-09-08T18:10:08.882Z,18.77
2023-09-08T18:12:37.441Z,18.68
2023-09-08T18:15:06.264Z,18.59
2023-09-08T18:17:34.908Z,18.52
2023-09-08T18:20:04.900Z,18.44
2023-09-08T18:22:33.137Z,18.36
2023-09-08T18:25:01.982Z,18.29
2023-09-08T18:27:31.372Z,18.22
2023-09-08T18:29:59.738Z,18.14
2023-09-08T18:32:28.297Z,18.06
2023-09-08T18:34:56.717Z,18.00
2023-09-08T18:37:24.989Z,17.93
2023-09-08T18:39:53.464Z,17.86
2023-09-08T18:42:21.936Z,17.79
2023-09-08T18:44:50.311Z,17.71
2023-09-08T18:47:19.893Z,17.65
2023-09-08T18:49:48.110Z,17.59
2023-09-08T18:52:16.341Z,17.53
2023-09-08T18:54:45.228Z,17.47
2023-09-08T18:57:13.677Z,17.40
2023-09-08T18:59:41.988Z,17.33
2023-09-08T19:02:13.002Z,17.28
2023-09-08T19:04:41.318Z,17.22
2023-09-08T19:07:09.697Z,17.16
2023-09-08T19:09:37.912Z,17.10
2023-09-08T19:12:06.318Z,17.05
2023-09-08T19:14:34.644Z,17.00
2023-09-08T19:17:04.092Z,16.94
2023-09-08T19:19:32.324Z,16.90
2023-09-08T19:22:00.710Z,16.85
2023-09-08T19:24:30.846Z,16.79
2023-09-08T19:26:59.705Z,16.74
2023-09-08T19:29:27.971Z,16.68
2023-09-08T19:31:56.259Z,16.63
2023-09-08T19:34:24.537Z,16.59
2023-09-08T19:36:52.853Z,16.54
2023-09-08T19:39:21.135Z,16.49
2023-09-08T19:41:49.398Z,16.44
2023-09-08T19:44:17.701Z,16.40
2023-09-08T19:46:46.043Z,16.35
2023-09-08T19:49:14.404Z,16.31
2023-09-08T19:51:42.725Z,16.27
2023-09-08T19:54:12.096Z,16.23
2023-09-08T19:56:40.361Z,16.18
2023-09-08T19:59:08.619Z,16.13
2023-09-08T20:01:37.123Z,16.07
2023-09-08T20:04:05.738Z,16.00
2023-09-08T20:06:35.664Z,15.96
2023-09-08T20:09:11.676Z,15.92
2023-09-08T20:11:42.398Z,15.89
2023-09-08T20:14:11.467Z,15.87
2023-09-08T20:16:40.779Z,15.84
2023-09-08T20:19:09.342Z,15.81
2023-09-08T20:21:37.665Z,15.77
2023-09-08T20:24:07.643Z,15.74
2023-09-08T20:26:36.017Z,15.71
2023-09-08T20:29:04.328Z,15.67
2023-09-08T20:31:32.821Z,15.63
2023-09-08T20:34:01.025Z,15.58
2023-09-08T20:36:29.254Z,15.53
2023-09-08T20:38:57.507Z,15.49
2023-09-08T20:41:25.878Z,15.45
2023-09-08T20:43:54.193Z,15.42
2023-09-08T20:46:22.345Z,15.38
2023-09-08T20:48:50.616Z,15.34
2023-09-08T20:51:21.318Z,15.31
2023-09-08T20:53:49.693Z,15.26
2023-09-08T20:56:17.961Z,15.22
2023-09-08T20:58:46.272Z,15.18
2023-09-08T21:01:14.554Z,15.14
2023-09-08T21:03:43.062Z,15.10
2023-09-08T21:06:13.564Z,15.05
2023-09-08T21:08:41.766Z,15.02
2023-09-08T21:11:10.592Z,14.99
2023-09-08T21:13:39.091Z,14.95
2023-09-08T21:16:07.636Z,14.91
2023-09-08T21:18:36.019Z,14.88
2023-09-08T21:21:05.081Z,14.83
2023-09-08T21:23:33.334Z,14.79
2023-09-08T21:26:05.463Z,14.76
2023-09-08T21:28:34.629Z,14.73
2023-09-08T21:31:09.075Z,14.70
2023-09-08T21:33:38.918Z,14.66
2023-09-08T21:36:08.565Z,14.63
2023-09-08T21:38:37.089Z,14.58
2023-09-08T21:41:10.980Z,14.55
2023-09-08T21:43:39.800Z,14.52
2023-09-08T21:46:09.836Z,14.49
2023-09-08T21:48:40.196Z,14.47
2023-09-08T21:51:09.859Z,14.45
2023-09-08T21:53:38.641Z,14.42
2023-09-08T21:56:07.508Z,14.39
2023-09-08T21:58:35.962Z,14.36
2023-09-08T22:01:04.588Z,14.32
2023-09-08T22:03:33.123Z,14.30
2023-09-08T22:06:01.828Z,14.27
2023-09-08T22:08:30.124Z,14.24
2023-09-08T22:11:07.719Z,14.21
2023-09-08T22:13:37.701Z,14.17
2023-09-08T22:16:06.625Z,14.12
2023-09-08T22:18:35.830Z,14.09
2023-09-08T22:21:05.856Z,14.07
2023-09-08T22:23:34.353Z,14.05
2023-09-08T22:26:04.171Z,14.01
2023-09-08T22:28:32.562Z,13.98
2023-09-08T22:31:00.772Z,13.95
2023-09-08T22:33:30.783Z,13.92
2023-09-08T22:35:59.484Z,13.88
2023-09-08T22:38:28.338Z,13.85
2023-09-08T22:40:56.690Z,13.82
2023-09-08T22:43:25.975Z,13.80
2023-09-08T22:45:55.798Z,13.77
2023-09-08T22:48:24.637Z,13.74
2023-09-08T22:50:52.848Z,13.72
2023-09-08T22:53:21.208Z,13.69
2023-09-08T22:55:49.534Z,13.66
2023-09-08T22:58:17.821Z,13.63
2023-09-08T23:00:46.116Z,13.60
2023-09-08T23:03:14.499Z,13.59
2023-09-08T23:05:43.813Z,13.57
2023-09-08T23:08:12.066Z,13.55
2023-09-08T23:10:40.338Z,13.53
2023-09-08T23:13:08.582Z,13.51
2023-09-08T23:15:36.772Z,13.49
2023-09-08T23:18:05.250Z,13.47
2023-09-08T23:20:33.589Z,13.45
2023-09-08T23:23:01.810Z,13.43
2023-09-08T23:25:32.062Z,13.43
2023-09-08T23:28:00.415Z,13.42
2023-09-08T23:30:28.670Z,13.41
2023-09-08T23:32:56.941Z,13.41
2023-09-08T23:35:25.500Z,13.40
2023-09-08T23:37:53.708Z,13.39
2023-09-08T23:40:22.080Z,13.37
2023-09-08T23:42:50.322Z,13.37
2023-09-08T23:45:18.604Z,13.36
2023-09-08T23:47:46.787Z,13.35
2023-09-08T23:50:15.107Z,13.34
2023-09-08T23:52:43.372Z,13.33
2023-09-08T23:55:12.080Z,13.33
2023-09-08T23:57:40.271Z,13.32
